sensor_id;sensor_type;location;lat;lon;timestamp;pressure;altitude;pressure_sealevel;temperature;humidity
67099;BME280;54288;53.046;5.668;2023-03-13T00:01:32;100125.47;;;8.26;100.00
67099;BME280;54288;53.046;5.668;2023-03-13T00:03:59;100119.47;;;8.19;100.00
67099;BME280;54288;53.046;5.668;2023-03-13T00:06:27;100126.47;;;8.17;100.00
67099;BME280;54288;53.046;5.668;2023-03-13T00:08:56;100110.00;;;8.15;100.00
67099;BME280;54288;53.046;5.668;2023-03-13T00:11:22;100109.16;;;8.15;100.00
67099;BME280;54288;53.046;5.668;2023-03-13T00:13:53;100103.97;;;8.13;100.00
67099;BME280;54288;53.046;5.668;2023-03-13T00:16:19;100102.28;;;8.11;100.00
67099;BME280;54288;53.046;5.668;2023-03-13T00:18:49;100079.69;;;8.11;100.00
67099;BME280;54288;53.046;5.668;2023-03-13T00:21:17;100069.28;;;8.10;100.00
67099;BME280;54288;53.046;5.668;2023-03-13T00:23:44;100061.47;;;8.10;100.00
67099;BME280;54288;53.046;5.668;2023-03-13T00:26:13;100045.88;;;8.07;100.00
67099;BME280;54288;53.046;5.668;2023-03-13T00:28:41;100053.59;;;8.11;100.00
67099;BME280;54288;53.046;5.668;2023-03-13T00:31:13;100042.34;;;8.09;100.00
67099;BME280;54288;53.046;5.668;2023-03-13T00:33:41;100032.81;;;8.08;100.00
67099;BME280;54288;53.046;5.668;2023-03-13T00:36:14;100041.44;;;8.10;100.00
67099;BME280;54288;53.046;5.668;2023-03-13T00:38:40;100024.16;;;8.08;100.00
67099;BME280;54288;53.046;5.668;2023-03-13T00:41:08;100012.84;;;8.07;100.00
67099;BME280;54288;53.046;5.668;2023-03-13T00:43:37;100005.03;;;8.07;100.00
67099;BME280;54288;53.046;5.668;2023-03-13T00:46:03;99991.91;;;8.10;100.00
67099;BME280;54288;53.046;5.668;2023-03-13T00:48:30;99992.66;;;8.15;100.00
67099;BME280;54288;53.046;5.668;2023-03-13T00:50:56;99987.44;;;8.15;100.00
67099;BME280;54288;53.046;5.668;2023-03-13T00:53:22;99983.06;;;8.17;100.00
67099;BME280;54288;53.046;5.668;2023-03-13T00:58:18;99960.41;;;8.19;100.00
67099;BME280;54288;53.046;5.668;2023-03-13T01:00:43;99957.75;;;8.22;100.00
67099;BME280;54288;53.046;5.668;2023-03-13T01:03:09;99954.16;;;8.26;100.00
67099;BME280;54288;53.046;5.668;2023-03-13T01:05:34;99954.16;;;8.26;100.00
67099;BME280;54288;53.046;5.668;2023-03-13T01:08:00;99948.03;;;8.27;100.00
67099;BME280;54288;53.046;5.668;2023-03-13T01:10:26;99938.50;;;8.26;100.00
67099;BME280;54288;53.046;5.668;2023-03-13T01:12:52;99930.69;;;8.26;100.00
67099;BME280;54288;53.046;5.668;2023-03-13T01:15:17;99918.50;;;8.27;100.00
67099;BME280;54288;53.046;5.668;2023-03-13T01:17:44;99923.72;;;8.27;100.00
67099;BME280;54288;53.046;5.668;2023-03-13T01:20:11;99906.28;;;8.29;100.00
67099;BME280;54288;53.046;5.668;2023-03-13T01:22:37;99907.03;;;8.32;100.00
67099;BME280;54288;53.046;5.668;2023-03-13T01:25:04;99902.72;;;8.31;100.00
67099;BME280;54288;53.046;5.668;2023-03-13T01:27:30;99887.13;;;8.30;100.00
67099;BME280;54288;53.046;5.668;2023-03-13T01:29:56;99877.63;;;8.27;100.00
67099;BME280;54288;53.046;5.668;2023-03-13T01:32:21;99865.47;;;8.26;100.00
67099;BME280;54288;53.046;5.668;2023-03-13T01:34:47;99871.59;;;8.25;100.00
67099;BME280;54288;53.046;5.668;2023-03-13T01:37:13;99831.63;;;8.25;100.00
67099;BME280;54288;53.046;5.668;2023-03-13T01:39:38;99824.75;;;8.22;100.00
67099;BME280;54288;53.046;5.668;2023-03-13T01:42:04;99820.38;;;8.23;100.00
67099;BME280;54288;53.046;5.668;2023-03-13T01:44:53;99808.16;;;8.25;100.00
67099;BME280;54288;53.046;5.668;2023-03-13T01:47:20;99790.84;;;8.22;100.00
67099;BME280;54288;53.046;5.668;2023-03-13T01:50:08;99780.31;;;8.25;100.00
67099;BME280;54288;53.046;5.668;2023-03-13T01:52:48;99774.19;;;8.26;100.00
67099;BME280;54288;53.046;5.668;2023-03-13T01:55:19;99770.56;;;8.32;100.00
67099;BME280;54288;53.046;5.668;2023-03-13T01:57:51;99760.09;;;8.33;100.00
67099;BME280;54288;53.046;5.668;2023-03-13T02:00:23;99749.59;;;8.35;100.00
67099;BME280;54288;53.046;5.668;2023-03-13T02:02:54;99752.09;;;8.39;100.00
67099;BME280;54288;53.046;5.668;2023-03-13T02:05:24;99730.28;;;8.42;100.00
67099;BME280;54288;53.046;5.668;2023-03-13T02:10:31;99732.66;;;8.49;100.00
67099;BME280;54288;53.046;5.668;2023-03-13T02:13:02;99715.09;;;8.54;100.00
67099;BME280;54288;53.046;5.668;2023-03-13T02:15:29;99713.31;;;8.56;100.00
67099;BME280;54288;53.046;5.668;2023-03-13T02:17:56;99716.81;;;8.55;100.00
67099;BME280;54288;53.046;5.668;2023-03-13T02:20:23;99699.38;;;8.57;100.00
67099;BME280;54288;53.046;5.668;2023-03-13T02:23:05;99700.16;;;8.59;100.00
67099;BME280;54288;53.046;5.668;2023-03-13T02:25:47;99681.94;;;8.58;100.00
67099;BME280;54288;53.046;5.668;2023-03-13T02:28:23;99672.38;;;8.58;100.00
67099;BME280;54288;53.046;5.668;2023-03-13T02:30:53;99674.94;;;8.60;100.00
67099;BME280;54288;53.046;5.668;2023-03-13T02:33:28;99661.03;;;8.59;100.00
67099;BME280;54288;53.046;5.668;2023-03-13T02:35:56;99641.97;;;8.57;100.00
67099;BME280;54288;53.046;5.668;2023-03-13T02:38:27;99645.34;;;8.61;100.00
67099;BME280;54288;53.046;5.668;2023-03-13T02:40:55;99634.94;;;8.59;100.00
67099;BME280;54288;53.046;5.668;2023-03-13T02:43:28;99624.50;;;8.59;100.00
67099;BME280;54288;53.046;5.668;2023-03-13T02:46:12;99629.63;;;8.62;100.00
67099;BME280;54288;53.046;5.668;2023-03-13T02:48:47;99617.25;;;8.67;100.00
67099;BME280;54288;53.046;5.668;2023-03-13T02:51:37;99611.25;;;8.65;100.00
67099;BME280;54288;53.046;5.668;2023-03-13T02:54:13;99610.47;;;8.63;100.00
67099;BME280;54288;53.046;5.668;2023-03-13T02:56:43;99600.16;;;8.59;100.00
67099;BME280;54288;53.046;5.668;2023-03-13T02:59:10;99587.97;;;8.59;100.00
67099;BME280;54288;53.046;5.668;2023-03-13T03:01:39;99587.94;;;8.61;100.00
67099;BME280;54288;53.046;5.668;2023-03-13T03:04:05;99567.97;;;8.60;100.00
67099;BME280;54288;53.046;5.668;2023-03-13T03:06:31;99575.63;;;8.64;100.00
67099;BME280;54288;53.046;5.668;2023-03-13T03:08:57;99578.94;;;8.69;100.00
67099;BME280;54288;53.046;5.668;2023-03-13T03:11:25;99572.78;;;8.72;100.00
67099;BME280;54288;53.046;5.668;2023-03-13T03:13:57;99564.81;;;8.75;100.00
67099;BME280;54288;53.046;5.668;2023-03-13T03:16:23;99574.25;;;8.79;100.00
67099;BME280;54288;53.046;5.668;2023-03-13T03:18:49;99564.31;;;8.90;100.00
67099;BME280;54288;53.046;5.668;2023-03-13T03:21:15;99559.75;;;8.96;100.00
67099;BME280;54288;53.046;5.668;2023-03-13T03:23:40;99542.06;;;9.04;100.00
67099;BME280;54288;53.046;5.668;2023-03-13T03:26:07;99560.03;;;9.13;100.00
67099;BME280;54288;53.046;5.668;2023-03-13T03:28:33;99557.19;;;9.19;100.00
67099;BME280;54288;53.046;5.668;2023-03-13T03:31:03;99554.47;;;9.22;100.00
67099;BME280;54288;53.046;5.668;2023-03-13T03:33:29;99546.41;;;9.28;100.00
67099;BME280;54288;53.046;5.668;2023-03-13T03:36:00;99549.88;;;9.29;100.00
67099;BME280;54288;53.046;5.668;2023-03-13T03:38:26;99560.28;;;9.30;100.00
67099;BME280;54288;53.046;5.668;2023-03-13T03:40:52;99544.53;;;9.32;100.00
67099;BME280;54288;53.046;5.668;2023-03-13T03:43:17;99545.44;;;9.31;100.00
67099;BME280;54288;53.046;5.668;2023-03-13T03:45:43;99543.00;;;9.26;100.00
67099;BME280;54288;53.046;5.668;2023-03-13T03:48:09;99529.22;;;9.23;100.00
67099;BME280;54288;53.046;5.668;2023-03-13T03:50:35;99538.00;;;9.20;100.00
67099;BME280;54288;53.046;5.668;2023-03-13T03:53:01;99519.81;;;9.17;100.00
67099;BME280;54288;53.046;5.668;2023-03-13T03:55:27;99518.72;;;9.24;100.00
67099;BME280;54288;53.046;5.668;2023-03-13T03:57:52;99523.13;;;9.22;100.00
67099;BME280;54288;53.046;5.668;2023-03-13T04:00:32;99517.88;;;9.22;100.00
67099;BME280;54288;53.046;5.668;2023-03-13T04:02:58;99517.06;;;9.22;100.00
67099;BME280;54288;53.046;5.668;2023-03-13T04:05:24;99508.19;;;9.26;100.00
67099;BME280;54288;53.046;5.668;2023-03-13T04:07:51;99504.66;;;9.27;100.00
67099;BME280;54288;53.046;5.668;2023-03-13T04:10:17;99502.03;;;9.27;100.00
67099;BME280;54288;53.046;5.668;2023-03-13T04:12:44;99493.16;;;9.32;100.00
67099;BME280;54288;53.046;5.668;2023-03-13T04:15:12;99493.44;;;9.48;100.00
67099;BME280;54288;53.046;5.668;2023-03-13T04:17:38;99491.25;;;9.59;100.00
67099;BME280;54288;53.046;5.668;2023-03-13T04:20:04;99493.75;;;9.85;100.00
67099;BME280;54288;53.046;5.668;2023-03-13T04:22:32;99498.34;;;10.00;100.00
67099;BME280;54288;53.046;5.668;2023-03-13T04:24:59;99477.22;;;10.06;100.00
67099;BME280;54288;53.046;5.668;2023-03-13T04:27:28;99483.06;;;10.12;100.00
67099;BME280;54288;53.046;5.668;2023-03-13T04:29:55;99479.19;;;10.22;100.00
67099;BME280;54288;53.046;5.668;2023-03-13T04:32:40;99465.28;;;10.20;100.00
67099;BME280;54288;53.046;5.668;2023-03-13T04:35:18;99472.81;;;10.28;100.00
67099;BME280;54288;53.046;5.668;2023-03-13T04:38:22;99456.28;;;10.27;100.00
67099;BME280;54288;53.046;5.668;2023-03-13T04:41:06;99454.50;;;10.28;100.00
67099;BME280;54288;53.046;5.668;2023-03-13T04:43:42;99453.69;;;10.27;100.00
67099;BME280;54288;53.046;5.668;2023-03-13T04:46:18;99429.22;;;10.28;100.00
67099;BME280;54288;53.046;5.668;2023-03-13T04:48:46;99431.81;;;10.28;100.00
67099;BME280;54288;53.046;5.668;2023-03-13T04:51:29;99435.22;;;10.30;100.00
67099;BME280;54288;53.046;5.668;2023-03-13T04:54:13;99416.69;;;10.35;100.00
67099;BME280;54288;53.046;5.668;2023-03-13T04:56:58;99425.03;;;10.44;100.00
67099;BME280;54288;53.046;5.668;2023-03-13T04:59:27;99427.41;;;10.50;100.00
67099;BME280;54288;53.046;5.668;2023-03-13T05:02:12;99427.47;;;10.49;100.00
67099;BME280;54288;53.046;5.668;2023-03-13T05:04:47;99416.22;;;10.47;100.00
67099;BME280;54288;53.046;5.668;2023-03-13T05:07:29;99404.81;;;10.48;100.00
67099;BME280;54288;53.046;5.668;2023-03-13T05:10:09;99411.09;;;10.44;100.00
67099;BME280;54288;53.046;5.668;2023-03-13T05:12:54;99422.53;;;10.41;100.00
67099;BME280;54288;53.046;5.668;2023-03-13T05:15:49;99406.84;;;10.41;100.00
67099;BME280;54288;53.046;5.668;2023-03-13T05:18:35;99428.38;;;10.48;100.00
67099;BME280;54288;53.046;5.668;2023-03-13T05:21:11;99426.59;;;10.48;100.00
67099;BME280;54288;53.046;5.668;2023-03-13T05:23:52;99420.44;;;10.49;100.00
67099;BME280;54288;53.046;5.668;2023-03-13T05:26:40;99410.88;;;10.48;100.00
67099;BME280;54288;53.046;5.668;2023-03-13T05:29:32;99415.09;;;10.52;100.00
67099;BME280;54288;53.046;5.668;2023-03-13T05:32:17;99410.63;;;10.54;100.00
67099;BME280;54288;53.046;5.668;2023-03-13T05:34:52;99391.31;;;10.57;100.00
67099;BME280;54288;53.046;5.668;2023-03-13T05:37:53;99405.06;;;10.62;100.00
67099;BME280;54288;53.046;5.668;2023-03-13T05:40:42;99400.75;;;10.61;100.00
67099;BME280;54288;53.046;5.668;2023-03-13T05:43:27;99397.28;;;10.60;100.00
67099;BME280;54288;53.046;5.668;2023-03-13T05:46:07;99391.97;;;10.62;100.00
67099;BME280;54288;53.046;5.668;2023-03-13T05:48:46;99385.53;;;10.69;100.00
67099;BME280;54288;53.046;5.668;2023-03-13T05:51:31;99378.63;;;10.68;100.00
67099;BME280;54288;53.046;5.668;2023-03-13T05:54:20;99374.94;;;10.72;100.00
67099;BME280;54288;53.046;5.668;2023-03-13T05:57:12;99385.22;;;10.76;100.00
67099;BME280;54288;53.046;5.668;2023-03-13T06:00:03;99369.38;;;10.79;100.00
67099;BME280;54288;53.046;5.668;2023-03-13T06:02:42;99369.59;;;10.93;100.00
67099;BME280;54288;53.046;5.668;2023-03-13T06:05:13;99369.47;;;10.96;100.00
67099;BME280;54288;53.046;5.668;2023-03-13T06:07:39;99377.97;;;11.01;100.00
67099;BME280;54288;53.046;5.668;2023-03-13T06:10:05;99366.50;;;11.04;100.00
67099;BME280;54288;53.046;5.668;2023-03-13T06:12:31;99364.66;;;11.06;100.00
67099;BME280;54288;53.046;5.668;2023-03-13T06:14:58;99363.38;;;11.14;100.00
67099;BME280;54288;53.046;5.668;2023-03-13T06:17:53;99356.19;;;11.19;100.00
67099;BME280;54288;53.046;5.668;2023-03-13T06:20:19;99371.19;;;11.16;100.00
67099;BME280;54288;53.046;5.668;2023-03-13T06:22:49;99364.38;;;11.12;100.00
67099;BME280;54288;53.046;5.668;2023-03-13T06:25:16;99369.41;;;11.16;100.00
67099;BME280;54288;53.046;5.668;2023-03-13T06:27:42;99352.06;;;11.14;100.00
67099;BME280;54288;53.046;5.668;2023-03-13T06:30:09;99366.78;;;11.16;100.00
67099;BME280;54288;53.046;5.668;2023-03-13T06:32:35;99365.94;;;11.16;100.00
67099;BME280;54288;53.046;5.668;2023-03-13T06:35:01;99358.78;;;11.19;100.00
67099;BME280;54288;53.046;5.668;2023-03-13T06:37:26;99355.53;;;11.14;100.00
67099;BME280;54288;53.046;5.668;2023-03-13T06:39:52;99359.78;;;11.17;100.00
67099;BME280;54288;53.046;5.668;2023-03-13T06:45:14;99373.19;;;11.29;100.00
67099;BME280;54288;53.046;5.668;2023-03-13T06:47:40;99364.50;;;11.27;100.00
67099;BME280;54288;53.046;5.668;2023-03-13T06:50:06;99352.41;;;11.25;100.00
67099;BME280;54288;53.046;5.668;2023-03-13T06:52:33;99350.59;;;11.27;100.00
67099;BME280;54288;53.046;5.668;2023-03-13T06:54:59;99348.84;;;11.26;100.00
67099;BME280;54288;53.046;5.668;2023-03-13T06:57:26;99348.94;;;11.24;100.00
67099;BME280;54288;53.046;5.668;2023-03-13T06:59:52;99332.94;;;11.30;100.00
67099;BME280;54288;53.046;5.668;2023-03-13T07:02:18;99355.72;;;11.28;100.00
67099;BME280;54288;53.046;5.668;2023-03-13T07:04:44;99355.59;;;11.31;100.00
67099;BME280;54288;53.046;5.668;2023-03-13T07:07:11;99346.97;;;11.29;100.00
67099;BME280;54288;53.046;5.668;2023-03-13T07:09:37;99357.44;;;11.29;100.00
67099;BME280;54288;53.046;5.668;2023-03-13T07:12:03;99352.34;;;11.26;100.00
67099;BME280;54288;53.046;5.668;2023-03-13T07:14:30;99343.91;;;11.20;100.00
67099;BME280;54288;53.046;5.668;2023-03-13T07:16:58;99353.50;;;11.21;100.00
67099;BME280;54288;53.046;5.668;2023-03-13T07:19:24;99365.09;;;11.15;100.00
67099;BME280;54288;53.046;5.668;2023-03-13T07:21:52;99352.06;;;11.14;100.00
67099;BME280;54288;53.046;5.668;2023-03-13T07:24:18;99358.28;;;11.11;100.00
67099;BME280;54288;53.046;5.668;2023-03-13T07:26:44;99365.38;;;11.09;100.00
67099;BME280;54288;53.046;5.668;2023-03-13T07:29:10;99364.72;;;11.04;100.00
67099;BME280;54288;53.046;5.668;2023-03-13T07:31:36;99373.28;;;11.08;100.00
67099;BME280;54288;53.046;5.668;2023-03-13T07:34:03;99364.50;;;11.09;100.00
67099;BME280;54288;53.046;5.668;2023-03-13T07:36:30;99371.25;;;11.14;100.00
67099;BME280;54288;53.046;5.668;2023-03-13T07:38:56;99358.16;;;11.14;100.00
67099;BME280;54288;53.046;5.668;2023-03-13T07:41:22;99353.31;;;11.24;100.00
67099;BME280;54288;53.046;5.668;2023-03-13T07:43:48;99354.97;;;11.26;100.00
67099;BME280;54288;53.046;5.668;2023-03-13T07:46:17;99359.28;;;11.27;100.00
67099;BME280;54288;53.046;5.668;2023-03-13T07:48:43;99361.91;;;11.27;100.00
67099;BME280;54288;53.046;5.668;2023-03-13T07:51:12;99354.19;;;11.24;100.00
67099;BME280;54288;53.046;5.668;2023-03-13T07:53:38;99368.81;;;11.28;100.00
67099;BME280;54288;53.046;5.668;2023-03-13T07:56:08;99362.88;;;11.25;100.00
67099;BME280;54288;53.046;5.668;2023-03-13T07:58:39;99339.38;;;11.23;100.00
67099;BME280;54288;53.046;5.668;2023-03-13T08:06:14;99344.53;;;11.43;100.00
67099;BME280;54288;53.046;5.668;2023-03-13T08:08:42;99335.31;;;11.72;100.00
67099;BME280;54288;53.046;5.668;2023-03-13T08:11:13;99334.00;;;11.80;100.00
67099;BME280;54288;53.046;5.668;2023-03-13T08:13:40;99357.34;;;12.03;100.00
67099;BME280;54288;53.046;5.668;2023-03-13T08:16:29;99349.97;;;12.26;100.00
67099;BME280;54288;53.046;5.668;2023-03-13T08:18:57;99339.84;;;12.36;100.00
67099;BME280;54288;53.046;5.668;2023-03-13T08:21:26;99349.72;;;12.48;100.00
67099;BME280;54288;53.046;5.668;2023-03-13T08:23:54;99350.19;;;12.56;100.00
67099;BME280;54288;53.046;5.668;2023-03-13T08:26:23;99358.13;;;12.54;100.00
67099;BME280;54288;53.046;5.668;2023-03-13T08:28:56;99338.75;;;12.57;100.00
67099;BME280;54288;53.046;5.668;2023-03-13T08:31:25;99361.44;;;12.58;100.00
67099;BME280;54288;53.046;5.668;2023-03-13T08:33:52;99343.34;;;12.69;100.00
67099;BME280;54288;53.046;5.668;2023-03-13T08:36:21;99353.47;;;12.76;100.00
67099;BME280;54288;53.046;5.668;2023-03-13T08:38:49;99363.84;;;12.95;100.00
67099;BME280;54288;53.046;5.668;2023-03-13T08:41:22;99360.31;;;12.96;100.00
67099;BME280;54288;53.046;5.668;2023-03-13T08:43:52;99379.88;;;12.73;100.00
67099;BME280;54288;53.046;5.668;2023-03-13T08:46:19;99365.00;;;12.57;100.00
67099;BME280;54288;53.046;5.668;2023-03-13T08:48:48;99366.91;;;12.38;100.00
67099;BME280;54288;53.046;5.668;2023-03-13T08:51:15;99349.28;;;12.23;100.00
67099;BME280;54288;53.046;5.668;2023-03-13T08:53:43;99354.78;;;12.18;100.00
67099;BME280;54288;53.046;5.668;2023-03-13T08:56:11;99342.50;;;12.19;100.00
67099;BME280;54288;53.046;5.668;2023-03-13T08:58:38;99351.97;;;12.21;100.00
67099;BME280;54288;53.046;5.668;2023-03-13T09:01:07;99332.16;;;12.16;100.00
67099;BME280;54288;53.046;5.668;2023-03-13T09:03:35;99337.34;;;12.34;100.00
67099;BME280;54288;53.046;5.668;2023-03-13T09:06:02;99349.66;;;12.32;100.00
67099;BME280;54288;53.046;5.668;2023-03-13T09:08:30;99360.47;;;12.26;100.00
67099;BME280;54288;53.046;5.668;2023-03-13T09:11:11;99372.59;;;12.12;100.00
67099;BME280;54288;53.046;5.668;2023-03-13T09:13:41;99345.66;;;11.92;100.00
67099;BME280;54288;53.046;5.668;2023-03-13T09:16:10;99370.78;;;11.79;100.00
67099;BME280;54288;53.046;5.668;2023-03-13T09:18:37;99351.47;;;11.63;100.00
67099;BME280;54288;53.046;5.668;2023-03-13T09:21:10;99355.50;;;11.51;100.00
67099;BME280;54288;53.046;5.668;2023-03-13T09:23:37;99347.03;;;11.46;100.00
67099;BME280;54288;53.046;5.668;2023-03-13T09:26:03;99342.38;;;11.51;100.00
67099;BME280;54288;53.046;5.668;2023-03-13T09:28:33;99333.88;;;11.65;100.00
67099;BME280;54288;53.046;5.668;2023-03-13T09:31:12;99325.84;;;11.86;100.00
67099;BME280;54288;53.046;5.668;2023-03-13T09:33:40;99328.28;;;12.40;100.00
67099;BME280;54288;53.046;5.668;2023-03-13T09:36:07;99304.41;;;12.77;100.00
67099;BME280;54288;53.046;5.668;2023-03-13T09:38:34;99316.19;;;13.02;100.00
67099;BME280;54288;53.046;5.668;2023-03-13T09:41:21;99314.38;;;13.18;100.00
67099;BME280;54288;53.046;5.668;2023-03-13T09:44:10;99277.41;;;13.37;100.00
67099;BME280;54288;53.046;5.668;2023-03-13T09:47:00;99285.63;;;13.46;100.00
67099;BME280;54288;53.046;5.668;2023-03-13T09:49:58;99281.09;;;13.64;100.00
67099;BME280;54288;53.046;5.668;2023-03-13T09:52:37;99268.47;;;13.55;100.00
67099;BME280;54288;53.046;5.668;2023-03-13T09:55:33;99285.28;;;14.11;97.64
67099;BME280;54288;53.046;5.668;2023-03-13T09:58:10;99265.22;;;14.24;96.99
67099;BME280;54288;53.046;5.668;2023-03-13T10:00:43;99261.84;;;14.22;98.10
67099;BME280;54288;53.046;5.668;2023-03-13T10:03:43;99278.41;;;14.52;97.30
67099;BME280;54288;53.046;5.668;2023-03-13T10:06:18;99256.31;;;14.55;95.90
67099;BME280;54288;53.046;5.668;2023-03-13T10:08:45;99253.84;;;14.52;94.27
67099;BME280;54288;53.046;5.668;2023-03-13T10:11:24;99267.00;;;14.52;91.91
67099;BME280;54288;53.046;5.668;2023-03-13T10:14:03;99267.13;;;14.64;91.17
67099;BME280;54288;53.046;5.668;2023-03-13T10:16:43;99266.34;;;14.76;89.29
67099;BME280;54288;53.046;5.668;2023-03-13T10:19:26;99265.69;;;14.73;86.78
67099;BME280;54288;53.046;5.668;2023-03-13T10:21:55;99258.06;;;14.82;86.47
67099;BME280;54288;53.046;5.668;2023-03-13T10:24:32;99261.38;;;14.72;85.24
67099;BME280;54288;53.046;5.668;2023-03-13T10:27:00;99249.03;;;14.72;85.67
67099;BME280;54288;53.046;5.668;2023-03-13T10:29:28;99281.53;;;14.59;85.74
67099;BME280;54288;53.046;5.668;2023-03-13T10:31:58;99255.34;;;14.70;86.28
67099;BME280;54288;53.046;5.668;2023-03-13T10:34:32;99240.09;;;14.75;84.80
67099;BME280;54288;53.046;5.668;2023-03-13T10:37:13;99245.91;;;14.80;84.78
67099;BME280;54288;53.046;5.668;2023-03-13T10:39:40;99232.19;;;14.75;83.92
67099;BME280;54288;53.046;5.668;2023-03-13T10:44:43;99244.25;;;14.79;84.01
67099;BME280;54288;53.046;5.668;2023-03-13T10:47:13;99219.00;;;14.75;83.61
67099;BME280;54288;53.046;5.668;2023-03-13T10:50:05;99212.97;;;14.87;83.70
67099;BME280;54288;53.046;5.668;2023-03-13T10:52:44;99210.94;;;15.04;83.71
67099;BME280;54288;53.046;5.668;2023-03-13T10:55:18;99211.09;;;15.15;82.59
67099;BME280;54288;53.046;5.668;2023-03-13T10:58:04;99228.19;;;15.10;81.30
67099;BME280;54288;53.046;5.668;2023-03-13T11:03:11;99240.84;;;15.17;80.35
67099;BME280;54288;53.046;5.668;2023-03-13T11:05:40;99212.78;;;14.90;82.11
67099;BME280;54288;53.046;5.668;2023-03-13T11:11:04;99210.66;;;15.09;82.73
67099;BME280;54288;53.046;5.668;2023-03-13T11:13:42;99237.78;;;15.11;82.71
67099;BME280;54288;53.046;5.668;2023-03-13T11:16:19;99250.97;;;15.11;81.74
67099;BME280;54288;53.046;5.668;2023-03-13T11:32:55;99235.47;;;14.92;77.83
67099;BME280;54288;53.046;5.668;2023-03-13T11:35:45;99266.06;;;14.81;75.91
67099;BME280;54288;53.046;5.668;2023-03-13T11:38:20;99239.94;;;14.50;76.33
67099;BME280;54288;53.046;5.668;2023-03-13T11:43:53;99247.41;;;14.98;75.77
67099;BME280;54288;53.046;5.668;2023-03-13T11:49:20;99259.84;;;14.96;75.54
67099;BME280;54288;53.046;5.668;2023-03-13T11:57:21;99242.13;;;14.98;73.46
67099;BME280;54288;53.046;5.668;2023-03-13T12:00:14;99247.59;;;14.81;75.21
67099;BME280;54288;53.046;5.668;2023-03-13T12:02:55;99253.78;;;14.67;74.54
67099;BME280;54288;53.046;5.668;2023-03-13T12:05:23;99240.09;;;14.47;75.51
67099;BME280;54288;53.046;5.668;2023-03-13T12:08:03;99233.53;;;14.40;77.14
67099;BME280;54288;53.046;5.668;2023-03-13T12:10:38;99221.50;;;14.50;76.28
67099;BME280;54288;53.046;5.668;2023-03-13T12:13:20;99212.94;;;14.32;76.71
67099;BME280;54288;53.046;5.668;2023-03-13T12:15:55;99237.50;;;14.19;77.75
67099;BME280;54288;53.046;5.668;2023-03-13T12:18:30;99251.31;;;14.07;78.58
67099;BME280;54288;53.046;5.668;2023-03-13T12:21:06;99222.00;;;13.85;78.99
67099;BME280;54288;53.046;5.668;2023-03-13T12:26:44;99215.16;;;13.67;79.92
67099;BME280;54288;53.046;5.668;2023-03-13T12:32:08;99177.78;;;13.76;79.75
67099;BME280;54288;53.046;5.668;2023-03-13T12:34:51;99186.44;;;13.78;79.28
67099;BME280;54288;53.046;5.668;2023-03-13T12:40:10;99193.19;;;13.68;79.16
67099;BME280;54288;53.046;5.668;2023-03-13T12:45:20;99171.38;;;13.66;79.41
67099;BME280;54288;53.046;5.668;2023-03-13T12:59:43;99144.56;;;14.03;77.29
67099;BME280;54288;53.046;5.668;2023-03-13T13:02:19;99151.50;;;14.04;77.24
67099;BME280;54288;53.046;5.668;2023-03-13T13:04:48;99136.00;;;14.13;77.63
67099;BME280;54288;53.046;5.668;2023-03-13T13:07:27;99141.06;;;14.16;76.37
67099;BME280;54288;53.046;5.668;2023-03-13T13:12:39;99117.78;;;14.24;76.25
67099;BME280;54288;53.046;5.668;2023-03-13T13:18:02;99106.84;;;13.74;76.79
67099;BME280;54288;53.046;5.668;2023-03-13T13:20:49;99103.56;;;13.71;77.35
67099;BME280;54288;53.046;5.668;2023-03-13T13:23:39;99113.53;;;13.94;76.90
67099;BME280;54288;53.046;5.668;2023-03-13T13:28:56;99092.47;;;14.08;75.54
67099;BME280;54288;53.046;5.668;2023-03-13T13:37:23;99121.66;;;14.19;75.74
67099;BME280;54288;53.046;5.668;2023-03-13T13:39:51;99126.09;;;14.17;75.83
67099;BME280;54288;53.046;5.668;2023-03-13T13:47:41;99109.56;;;14.15;75.55
67099;BME280;54288;53.046;5.668;2023-03-13T13:50:18;99111.94;;;14.19;76.52
67099;BME280;54288;53.046;5.668;2023-03-13T13:52:44;99108.47;;;14.19;76.90
67099;BME280;54288;53.046;5.668;2023-03-13T13:58:02;99086.28;;;13.81;76.96
67099;BME280;54288;53.046;5.668;2023-03-13T14:00:41;99093.31;;;13.66;77.37
67099;BME280;54288;53.046;5.668;2023-03-13T14:03:21;99099.41;;;13.67;78.29
67099;BME280;54288;53.046;5.668;2023-03-13T14:05:52;99109.09;;;13.66;78.43
67099;BME280;54288;53.046;5.668;2023-03-13T14:08:32;99096.88;;;13.65;78.86
67099;BME280;54288;53.046;5.668;2023-03-13T14:11:06;99105.03;;;13.61;78.29
67099;BME280;54288;53.046;5.668;2023-03-13T14:13:35;99105.69;;;13.64;78.93
67099;BME280;54288;53.046;5.668;2023-03-13T14:16:20;99099.59;;;13.78;78.12
67099;BME280;54288;53.046;5.668;2023-03-13T14:18:47;99130.44;;;13.76;77.47
67099;BME280;54288;53.046;5.668;2023-03-13T14:21:13;99143.97;;;13.70;78.39
67099;BME280;54288;53.046;5.668;2023-03-13T14:23:44;99125.91;;;13.64;78.76
67099;BME280;54288;53.046;5.668;2023-03-13T14:26:25;99122.34;;;13.51;79.41
67099;BME280;54288;53.046;5.668;2023-03-13T14:28:56;99105.81;;;13.63;79.53
67099;BME280;54288;53.046;5.668;2023-03-13T14:31:32;99103.38;;;13.74;78.88
67099;BME280;54288;53.046;5.668;2023-03-13T14:34:04;99113.78;;;13.75;78.50
67099;BME280;54288;53.046;5.668;2023-03-13T14:36:54;99098.66;;;13.79;78.69
67099;BME280;54288;53.046;5.668;2023-03-13T14:42:02;99103.34;;;13.60;78.58
67099;BME280;54288;53.046;5.668;2023-03-13T14:44:30;99112.03;;;13.62;78.63
67099;BME280;54288;53.046;5.668;2023-03-13T14:47:17;99102.78;;;13.55;78.63
67099;BME280;54288;53.046;5.668;2023-03-13T14:49:47;99116.22;;;13.50;79.32
67099;BME280;54288;53.046;5.668;2023-03-13T14:52:23;99094.22;;;13.51;78.85
67099;BME280;54288;53.046;5.668;2023-03-13T14:54:58;99108.69;;;13.44;79.32
67099;BME280;54288;53.046;5.668;2023-03-13T14:57:27;99107.09;;;13.56;79.00